createdAt,value
2022-09-21T00:00:35.520Z,99527.31
2022-09-21T00:01:38.887Z,99527.31
2022-09-21T00:02:41.210Z,99530.66
2022-09-21T00:03:44.467Z,99525.09
2022-09-21T00:04:47.785Z,99534.48
2022-09-21T00:05:50.106Z,99533.50
2022-09-21T00:06:53.314Z,99532.94
2022-09-21T00:07:56.738Z,99535.73
2022-09-21T00:08:59.085Z,99536.60
2022-09-21T00:10:02.363Z,99534.29
2022-09-21T00:11:05.622Z,99546.25
2022-09-21T00:12:11.521Z,99531.09
2022-09-21T00:13:14.242Z,99536.26
2022-09-21T00:14:19.980Z,99537.78
2022-09-21T00:15:23.368Z,99535.28
2022-09-21T00:16:27.934Z,99531.31
2022-09-21T00:17:31.429Z,99533.12
2022-09-21T00:18:34.971Z,99537.78
2022-09-21T00:19:38.742Z,99528.45
2022-09-21T00:20:44.145Z,99534.94
2022-09-21T00:21:47.910Z,99541.61
2022-09-21T00:22:51.605Z,99535.06
2022-09-21T00:23:53.857Z,99531.56
2022-09-21T00:24:57.147Z,99531.62
2022-09-21T00:26:07.930Z,99532.53
2022-09-21T00:27:11.104Z,99528.52
2022-09-21T00:28:14.370Z,99523.45
2022-09-21T00:29:17.822Z,99526.77
2022-09-21T00:30:21.570Z,99532.66
2022-09-21T00:31:25.212Z,99523.70
2022-09-21T00:32:28.754Z,99522.73
2022-09-21T00:33:32.361Z,99525.09
2022-09-21T00:34:35.008Z,99522.23
2022-09-21T00:35:38.056Z,99526.63
2022-09-21T00:36:41.649Z,99535.00
2022-09-21T00:37:44.205Z,99529.17
2022-09-21T00:38:52.068Z,99526.45
2022-09-21T00:39:55.463Z,99527.73
2022-09-21T00:40:59.193Z,99527.48
2022-09-21T00:42:03.119Z,99519.16
2022-09-21T00:43:14.348Z,99527.86
2022-09-21T00:44:28.300Z,99529.12
2022-09-21T00:45:31.116Z,99523.38
2022-09-21T00:46:36.222Z,99521.95
2022-09-21T00:47:41.849Z,99529.80
2022-09-21T00:48:47.196Z,99518.94
2022-09-21T00:49:52.637Z,99521.48
2022-09-21T00:50:57.194Z,99518.23
2022-09-21T00:52:02.662Z,99517.84
2022-09-21T00:53:07.375Z,99522.20
2022-09-21T00:54:12.839Z,99524.19
2022-09-21T00:55:17.205Z,99527.02
2022-09-21T00:56:22.019Z,99526.77
2022-09-21T00:57:27.308Z,99526.24
2022-09-21T00:58:32.921Z,99525.39
2022-09-21T00:59:37.770Z,99526.77
2022-09-21T01:00:42.160Z,99526.97
2022-09-21T01:01:45.411Z,99525.45
2022-09-21T01:02:48.362Z,99521.36
2022-09-21T01:03:53.679Z,99524.44
2022-09-21T01:04:57.436Z,99526.58
2022-09-21T01:06:00.561Z,99519.16
2022-09-21T01:07:05.276Z,99527.73
2022-09-21T01:08:14.726Z,99525.86
2022-09-21T01:09:19.734Z,99529.67
2022-09-21T01:10:26.458Z,99528.27
2022-09-21T01:11:32.739Z,99530.39
2022-09-21T01:12:43.859Z,99528.45
2022-09-21T01:14:00.958Z,99528.45
2022-09-21T01:15:22.538Z,99532.42
2022-09-21T01:16:29.420Z,99525.91
2022-09-21T01:17:35.905Z,99529.55
2022-09-21T01:19:00.195Z,99532.01
2022-09-21T01:20:08.353Z,99531.75
2022-09-21T01:21:19.102Z,99532.01
2022-09-21T01:22:38.878Z,99530.98
2022-09-21T01:23:46.140Z,99535.92
2022-09-21T01:25:06.983Z,99532.30
2022-09-21T01:26:13.983Z,99531.03
2022-09-21T01:27:27.296Z,99536.11
2022-09-21T01:28:32.649Z,99541.77
2022-09-21T01:29:52.379Z,99528.45
2022-09-21T01:30:57.667Z,99523.17
2022-09-21T01:32:11.686Z,99528.70
2022-09-21T01:33:16.645Z,99533.56
2022-09-21T01:34:26.117Z,99528.70
2022-09-21T01:35:32.577Z,99534.56
2022-09-21T01:36:37.203Z,99533.77
2022-09-21T01:37:41.722Z,99537.03
2022-09-21T01:38:51.507Z,99529.89
2022-09-21T01:39:57.713Z,99529.55
2022-09-21T01:41:04.473Z,99532.93
2022-09-21T01:42:10.143Z,99530.02
2022-09-21T01:43:17.317Z,99531.75
2022-09-21T01:44:22.795Z,99532.34
2022-09-21T01:45:27.069Z,99532.80
2022-09-21T01:46:31.198Z,99535.98
2022-09-21T01:47:36.109Z,99524.23
2022-09-21T01:48:41.587Z,99533.70
2022-09-21T01:49:49.636Z,99525.20
2022-09-21T01:50:56.518Z,99527.61
2022-09-21T01:52:01.938Z,99529.55
2022-09-21T01:53:14.790Z,99528.58
2022-09-21T01:54:21.873Z,99523.38
2022-09-21T01:55:28.645Z,99518.65
2022-09-21T01:56:34.965Z,99527.48
2022-09-21T01:57:39.743Z,99524.30
2022-09-21T01:58:46.493Z,99524.05
2022-09-21T01:59:51.780Z,99525.79
2022-09-21T02:00:56.815Z,99524.69
2022-09-21T02:02:05.703Z,99519.16
2022-09-21T02:03:10.804Z,99525.71
2022-09-21T02:04:14.357Z,99519.88
2022-09-21T02:05:22.371Z,99526.76
2022-09-21T02:06:27.688Z,99521.36
2022-09-21T02:07:32.691Z,99521.36
2022-09-21T02:08:36.284Z,99521.10
2022-09-21T02:09:38.822Z,99521.19
2022-09-21T02:10:49.991Z,99516.66
2022-09-21T02:11:54.409Z,99516.83
2022-09-21T02:13:03.154Z,99526.55
2022-09-21T02:14:08.464Z,99525.91
2022-09-21T02:15:11.908Z,99510.53
2022-09-21T02:16:25.948Z,99514.59
2022-09-21T02:17:47.356Z,99517.71
2022-09-21T02:19:10.353Z,99524.36
2022-09-21T02:20:18.818Z,99531.62
2022-09-21T02:21:36.167Z,99532.22
2022-09-21T02:22:49.853Z,99537.80
2022-09-21T02:23:56.760Z,99536.23
2022-09-21T02:25:07.849Z,99535.80
2022-09-21T02:26:12.800Z,99537.20
2022-09-21T02:27:35.909Z,99542.41
2022-09-21T02:28:40.869Z,99551.48
2022-09-21T02:29:47.512Z,99543.32
2022-09-21T02:30:53.734Z,99539.22
2022-09-21T02:31:58.691Z,99541.38
2022-09-21T02:33:12.580Z,99551.36
2022-09-21T02:34:18.541Z,99548.91
2022-09-21T02:35:43.439Z,99549.92
2022-09-21T02:37:00.181Z,99548.06
2022-09-21T02:38:20.883Z,99543.70
2022-09-21T02:39:26.016Z,99541.45
2022-09-21T02:40:43.363Z,99545.60
2022-09-21T02:41:52.262Z,99548.64
2022-09-21T02:42:58.339Z,99542.30
2022-09-21T02:44:06.282Z,99549.62
2022-09-21T02:45:17.346Z,99541.51
2022-09-21T02:46:22.868Z,99545.93
2022-09-21T02:47:29.271Z,99542.08
2022-09-21T02:48:35.390Z,99537.02
2022-09-21T02:49:42.498Z,99539.80
2022-09-21T02:50:47.605Z,99533.00
2022-09-21T02:51:52.836Z,99539.89
2022-09-21T02:52:56.294Z,99542.80
2022-09-21T02:54:01.783Z,99538.38
2022-09-21T02:55:06.038Z,99535.97
2022-09-21T02:56:09.854Z,99538.00
2022-09-21T02:57:14.012Z,99550.28
2022-09-21T02:58:18.732Z,99534.69
2022-09-21T02:59:24.806Z,99541.23
2022-09-21T03:00:27.393Z,99543.30
2022-09-21T03:01:31.440Z,99548.50
2022-09-21T03:02:38.866Z,99537.80
2022-09-21T03:03:42.168Z,99551.03
2022-09-21T03:04:48.153Z,99545.05
2022-09-21T03:05:55.653Z,99542.77
2022-09-21T03:06:59.361Z,99545.80
2022-09-21T03:08:02.595Z,99546.15
2022-09-21T03:09:05.905Z,99539.73
2022-09-21T03:10:09.582Z,99545.18
2022-09-21T03:11:17.537Z,99536.89
2022-09-21T03:12:20.555Z,99531.03
2022-09-21T03:13:22.955Z,99537.80
2022-09-21T03:14:26.144Z,99536.70
2022-09-21T03:15:29.642Z,99541.92
2022-09-21T03:16:33.017Z,99535.39
2022-09-21T03:17:36.096Z,99537.02
2022-09-21T03:18:41.567Z,99538.92
2022-09-21T03:19:44.849Z,99537.35
2022-09-21T03:20:47.910Z,99540.61
2022-09-21T03:21:50.942Z,99543.70
2022-09-21T03:22:56.002Z,99549.81
2022-09-21T03:23:59.228Z,99545.46
2022-09-21T03:25:02.406Z,99551.25
2022-09-21T03:26:07.457Z,99543.27
2022-09-21T03:27:10.590Z,99555.61
2022-09-21T03:28:15.021Z,99546.94
2022-09-21T03:29:18.447Z,99550.97
2022-09-21T03:30:22.589Z,99547.66
2022-09-21T03:31:25.773Z,99550.28
2022-09-21T03:32:30.988Z,99556.04
2022-09-21T03:33:34.503Z,99551.63
2022-09-21T03:34:37.681Z,99550.31
2022-09-21T03:35:41.371Z,99550.78
2022-09-21T03:36:44.457Z,99555.64
2022-09-21T03:37:46.977Z,99548.38
2022-09-21T03:38:52.877Z,99554.36
2022-09-21T03:39:56.202Z,99555.33
2022-09-21T03:40:59.325Z,99548.31
2022-09-21T03:42:04.007Z,99554.66
2022-09-21T03:43:07.361Z,99552.95
2022-09-21T03:44:10.172Z,99550.59
2022-09-21T03:45:13.549Z,99560.60
2022-09-21T03:46:16.936Z,99552.02
2022-09-21T03:47:21.052Z,99563.24
2022-09-21T03:48:24.538Z,99559.23
2022-09-21T03:49:26.744Z,99552.91
2022-09-21T03:50:30.609Z,99561.39
2022-09-21T03:51:33.039Z,99563.55
2022-09-21T03:52:38.735Z,99560.83
2022-09-21T03:53:44.656Z,99565.74
2022-09-21T03:54:48.697Z,99570.95
2022-09-21T03:55:50.912Z,99561.87
2022-09-21T03:56:53.950Z,99567.34
2022-09-21T03:57:57.827Z,99570.26
2022-09-21T03:59:01.348Z,99567.34
2022-09-21T04:00:07.119Z,99572.20
2022-09-21T04:01:10.410Z,99571.00
2022-09-21T04:02:14.888Z,99572.92
2022-09-21T04:03:18.137Z,99578.02
2022-09-21T04:04:22.051Z,99580.30
2022-09-21T04:05:26.387Z,99572.38
2022-09-21T04:06:29.708Z,99577.02
2022-09-21T04:07:34.162Z,99577.58
2022-09-21T04:08:37.289Z,99578.42
2022-09-21T04:09:42.972Z,99575.95
2022-09-21T04:10:46.051Z,99577.33
2022-09-21T04:11:48.225Z,99572.92
2022-09-21T04:12:53.745Z,99580.38
2022-09-21T04:13:57.452Z,99579.68
2022-09-21T04:15:01.823Z,99586.59
2022-09-21T04:16:05.494Z,99579.27
2022-09-21T04:17:10.433Z,99583.50
2022-09-21T04:18:14.066Z,99578.02
2022-09-21T04:19:17.035Z,99580.25
2022-09-21T04:20:23.544Z,99574.48
2022-09-21T04:21:26.710Z,99578.37
2022-09-21T04:22:29.120Z,99576.30
2022-09-21T04:23:32.578Z,99577.11
2022-09-21T04:24:42.516Z,99572.58
2022-09-21T04:25:49.478Z,99580.43
2022-09-21T04:26:53.761Z,99574.81
2022-09-21T04:27:57.851Z,99572.45
2022-09-21T04:29:03.329Z,99575.64
2022-09-21T04:30:09.021Z,99573.91
2022-09-21T04:31:13.975Z,99571.83
2022-09-21T04:32:17.224Z,99574.48
2022-09-21T04:33:24.328Z,99570.19
2022-09-21T04:34:31.275Z,99573.39
2022-09-21T04:35:36.241Z,99571.03
2022-09-21T04:36:41.909Z,99576.83
2022-09-21T04:37:46.083Z,99574.42
2022-09-21T04:38:51.269Z,99573.83
2022-09-21T04:39:56.417Z,99579.34
2022-09-21T04:41:01.526Z,99570.88
2022-09-21T04:42:06.720Z,99577.52
2022-09-21T04:43:09.937Z,99574.67
2022-09-21T04:44:14.219Z,99578.77
2022-09-21T04:45:17.405Z,99584.88
2022-09-21T04:46:20.313Z,99585.12
2022-09-21T04:47:24.505Z,99578.96
2022-09-21T04:48:27.071Z,99582.47
2022-09-21T04:49:30.407Z,99577.80
2022-09-21T04:50:33.605Z,99576.61
2022-09-21T04:51:41.921Z,99577.80
2022-09-21T04:52:45.274Z,99581.90
2022-09-21T04:53:48.718Z,99578.05
2022-09-21T04:54:51.328Z,99586.94
2022-09-21T04:55:54.960Z,99574.23
2022-09-21T04:56:58.146Z,99578.37
2022-09-21T04:58:01.269Z,99582.59
2022-09-21T04:59:05.359Z,99585.25
2022-09-21T05:00:09.069Z,99585.84
2022-09-21T05:01:12.368Z,99582.78
2022-09-21T05:02:16.041Z,99582.72
2022-09-21T05:03:21.008Z,99586.16
2022-09-21T05:04:24.400Z,99586.59
2022-09-21T05:05:28.227Z,99591.92
2022-09-21T05:06:31.729Z,99589.19
2022-09-21T05:07:34.838Z,99589.79
2022-09-21T05:08:56.512Z,99585.81
2022-09-21T05:10:08.158Z,99587.91
2022-09-21T05:11:16.722Z,99591.83
2022-09-21T05:12:19.190Z,99591.42
2022-09-21T05:13:21.747Z,99590.58
2022-09-21T05:14:24.859Z,99594.55
2022-09-21T05:15:29.235Z,99592.86
2022-09-21T05:16:32.573Z,99597.59
2022-09-21T05:17:35.858Z,99599.78
2022-09-21T05:18:38.083Z,99598.97
2022-09-21T05:19:41.764Z,99595.21
2022-09-21T05:20:44.979Z,99597.59
2022-09-21T05:21:47.647Z,99602.03
2022-09-21T05:22:50.891Z,99595.77
2022-09-21T05:23:54.849Z,99601.28
2022-09-21T05:24:57.028Z,99604.89
2022-09-21T05:26:00.552Z,99603.59
2022-09-21T05:27:05.721Z,99599.28
2022-09-21T05:28:09.361Z,99605.70
2022-09-21T05:29:12.266Z,99608.11
2022-09-21T05:30:15.801Z,99602.16
2022-09-21T05:31:24.293Z,99604.35
2022-09-21T05:32:47.830Z,99607.73
2022-09-21T05:34:02.481Z,99608.11
2022-09-21T05:35:18.522Z,99609.92
2022-09-21T05:36:28.396Z,99608.63
2022-09-21T05:37:39.478Z,99605.84
2022-09-21T05:38:42.567Z,99602.59
2022-09-21T05:39:45.209Z,99606.09
2022-09-21T05:40:51.573Z,99605.41
2022-09-21T05:41:55.512Z,99605.39
2022-09-21T05:42:58.794Z,99604.20
2022-09-21T05:44:02.230Z,99604.13
2022-09-21T05:45:05.753Z,99600.00
2022-09-21T05:46:09.838Z,99606.17
2022-09-21T05:47:27.782Z,99603.38
2022-09-21T05:48:32.854Z,99602.16
2022-09-21T05:49:46.916Z,99607.23
2022-09-21T05:50:51.832Z,99605.14
2022-09-21T05:52:07.147Z,99604.85
2022-09-21T05:53:11.858Z,99606.91
2022-09-21T05:54:16.924Z,99611.49
2022-09-21T05:55:20.939Z,99611.23
2022-09-21T05:56:40.269Z,99611.95
2022-09-21T05:57:57.702Z,99611.89
2022-09-21T05:59:05.379Z,99614.55
2022-09-21T06:00:22.071Z,99610.21
2022-09-21T06:01:29.294Z,99610.11
2022-09-21T06:02:51.285Z,99613.84
2022-09-21T06:03:54.637Z,99618.84
2022-09-21T06:04:58.202Z,99621.77
2022-09-21T06:06:01.749Z,99621.02
2022-09-21T06:07:05.907Z,99621.98
2022-09-21T06:08:09.089Z,99615.97
2022-09-21T06:09:11.618Z,99617.72
2022-09-21T06:10:15.438Z,99618.78
2022-09-21T06:11:18.985Z,99623.26
2022-09-21T06:12:22.060Z,99628.44
2022-09-21T06:13:25.478Z,99627.47
2022-09-21T06:14:29.148Z,99627.91
2022-09-21T06:15:33.243Z,99630.38
2022-09-21T06:16:37.494Z,99633.70
2022-09-21T06:17:41.090Z,99633.05
2022-09-21T06:18:44.142Z,99623.20
2022-09-21T06:19:47.302Z,99623.64
2022-09-21T06:20:50.570Z,99631.69
2022-09-21T06:21:53.818Z,99630.41
2022-09-21T06:23:01.383Z,99634.38
2022-09-21T06:24:04.822Z,99630.45
2022-09-21T06:25:09.767Z,99636.91
2022-09-21T06:26:13.254Z,99636.52
2022-09-21T06:27:18.520Z,99639.69
2022-09-21T06:28:21.880Z,99640.08
2022-09-21T06:29:25.129Z,99639.62
2022-09-21T06:30:31.318Z,99631.77
2022-09-21T06:31:36.306Z,99647.03
2022-09-21T06:32:39.384Z,99644.22
2022-09-21T06:33:48.127Z,99642.28
2022-09-21T06:34:52.065Z,99642.75
2022-09-21T06:35:58.189Z,99646.97
2022-09-21T06:37:02.514Z,99649.67
2022-09-21T06:38:06.481Z,99646.00
2022-09-21T06:39:09.721Z,99641.91
2022-09-21T06:40:12.984Z,99643.84
2022-09-21T06:41:20.854Z,99646.58
2022-09-21T06:42:22.455Z,99643.84
2022-09-21T06:43:25.471Z,99648.72
2022-09-21T06:44:29.313Z,99646.76
2022-09-21T06:45:35.847Z,99644.09
2022-09-21T06:46:41.286Z,99654.81
2022-09-21T06:47:45.486Z,99639.61
2022-09-21T06:48:48.703Z,99650.58
2022-09-21T06:49:52.750Z,99649.52
2022-09-21T06:51:02.715Z,99650.23
2022-09-21T06:52:05.936Z,99653.45
2022-09-21T06:53:09.268Z,99656.38
2022-09-21T06:54:13.366Z,99647.92
2022-09-21T06:55:16.576Z,99650.97
2022-09-21T06:56:19.730Z,99654.67
2022-09-21T06:57:25.607Z,99656.13
2022-09-21T06:58:30.422Z,99654.77
2022-09-21T06:59:32.625Z,99654.30
2022-09-21T07:00:35.932Z,99659.89
2022-09-21T07:01:38.718Z,99661.91
2022-09-21T07:02:45.267Z,99660.69
2022-09-21T07:03:52.387Z,99665.20
2022-09-21T07:04:56.112Z,99664.77
2022-09-21T07:06:02.051Z,99667.62
2022-09-21T07:07:05.918Z,99666.14
2022-09-21T07:10:21.824Z,99664.73
2022-09-21T07:11:25.578Z,99671.36
2022-09-21T07:12:29.819Z,99661.89
2022-09-21T07:13:33.125Z,99666.98
2022-09-21T07:14:35.410Z,99662.02
2022-09-21T07:15:41.105Z,99660.78
2022-09-21T07:16:44.289Z,99669.77
2022-09-21T07:17:52.305Z,99668.56
2022-09-21T07:19:09.731Z,99668.66
2022-09-21T07:20:02.929Z,99668.14
2022-09-21T07:21:07.147Z,99661.97
2022-09-21T07:22:11.412Z,99659.75
2022-09-21T07:23:15.679Z,99658.14
2022-09-21T07:24:18.813Z,99660.52
2022-09-21T07:25:22.091Z,99662.95
2022-09-21T07:26:26.515Z,99660.92
2022-09-21T07:27:30.182Z,99662.61
2022-09-21T07:28:34.417Z,99662.75
2022-09-21T07:29:37.645Z,99663.19
2022-09-21T07:30:41.077Z,99658.32
2022-09-21T07:31:45.408Z,99663.22
2022-09-21T07:32:51.862Z,99662.73
2022-09-21T07:34:00.324Z,99662.21
2022-09-21T07:35:03.840Z,99657.87
2022-09-21T07:36:12.575Z,99663.09
2022-09-21T07:37:16.799Z,99660.39
2022-09-21T07:38:20.380Z,99661.08
2022-09-21T07:39:23.439Z,99657.30
2022-09-21T07:40:26.559Z,99655.63
2022-09-21T07:41:29.870Z,99664.78
2022-09-21T07:42:33.092Z,99661.55
2022-09-21T07:43:36.625Z,99666.73
2022-09-21T07:44:39.957Z,99661.79
2022-09-21T07:45:47.059Z,99660.88
2022-09-21T07:46:51.642Z,99662.83
2022-09-21T07:47:59.938Z,99668.28
2022-09-21T07:49:04.770Z,99654.98
2022-09-21T07:50:08.682Z,99660.19
2022-09-21T07:51:12.610Z,99667.38
2022-09-21T07:52:16.270Z,99662.75
2022-09-21T07:53:20.522Z,99660.19
2022-09-21T07:54:23.578Z,99664.00
2022-09-21T07:55:26.952Z,99666.27
2022-09-21T07:56:30.312Z,99667.66
2022-09-21T07:57:50.956Z,99667.38
2022-09-21T07:59:09.270Z,99672.47
2022-09-21T08:00:12.287Z,99678.59
2022-09-21T08:01:15.196Z,99664.35
2022-09-21T08:02:18.640Z,99675.59
2022-09-21T08:03:21.808Z,99672.93
2022-09-21T08:04:28.096Z,99675.31
2022-09-21T08:05:32.450Z,99675.41
2022-09-21T08:06:37.785Z,99681.62
2022-09-21T08:07:41.126Z,99688.13
2022-09-21T08:08:45.717Z,99689.34
2022-09-21T08:09:50.807Z,99687.66
2022-09-21T08:10:55.086Z,99683.18
2022-09-21T08:11:59.846Z,99678.69
2022-09-21T08:13:03.333Z,99690.19
2022-09-21T08:14:06.434Z,99689.91
2022-09-21T08:15:37.090Z,99687.66
2022-09-21T08:16:20.756Z,99683.86
2022-09-21T08:17:24.989Z,99692.14
2022-09-21T08:18:28.466Z,99690.19
2022-09-21T08:19:31.494Z,99688.36
2022-09-21T08:20:35.386Z,99691.59
2022-09-21T08:21:37.786Z,99691.58
2022-09-21T08:22:41.208Z,99693.80
2022-09-21T08:23:44.373Z,99696.00
2022-09-21T08:24:49.298Z,99693.08
2022-09-21T08:25:53.123Z,99695.36
2022-09-21T08:26:56.439Z,99697.18
2022-09-21T08:28:00.075Z,99693.80
2022-09-21T08:29:03.329Z,99692.73
2022-09-21T08:30:07.518Z,99696.33
2022-09-21T08:31:11.908Z,99704.43
2022-09-21T08:32:33.093Z,99701.02
2022-09-21T08:33:20.010Z,99703.33
2022-09-21T08:34:24.462Z,99700.61
2022-09-21T08:35:27.562Z,99708.30
2022-09-21T08:36:30.826Z,99706.09
2022-09-21T08:37:35.794Z,99712.49
2022-09-21T08:38:41.221Z,99701.66
2022-09-21T08:39:43.584Z,99705.28
2022-09-21T08:40:46.608Z,99707.58
2022-09-21T08:41:55.269Z,99699.45
2022-09-21T08:43:15.075Z,99713.63
2022-09-21T08:44:20.023Z,99711.16
2022-09-21T08:45:24.261Z,99712.89
2022-09-21T08:46:29.232Z,99718.12
2022-09-21T08:47:40.370Z,99707.08
2022-09-21T08:48:47.664Z,99708.19
2022-09-21T08:49:55.221Z,99719.23
2022-09-21T08:51:03.313Z,99713.47
2022-09-21T08:52:08.233Z,99713.14
2022-09-21T08:53:12.433Z,99722.97
2022-09-21T08:54:17.339Z,99719.72
2022-09-21T08:55:21.344Z,99722.52
2022-09-21T08:56:32.861Z,99721.61
2022-09-21T08:57:31.249Z,99721.41
2022-09-21T08:58:34.383Z,99725.83
2022-09-21T08:59:39.562Z,99721.15
2022-09-21T09:00:43.064Z,99722.99
2022-09-21T09:01:58.852Z,99720.14
2022-09-21T09:03:13.828Z,99725.83
2022-09-21T09:04:30.546Z,99724.92
2022-09-21T09:05:35.638Z,99729.05
2022-09-21T09:06:42.611Z,99725.31
2022-09-21T09:08:04.194Z,99720.98
2022-09-21T09:09:26.782Z,99731.91
2022-09-21T09:10:35.937Z,99717.55
2022-09-21T09:11:41.147Z,99714.75
2022-09-21T09:12:46.349Z,99710.30
2022-09-21T09:13:50.438Z,99714.26
2022-09-21T09:15:03.515Z,99719.34
2022-09-21T09:16:07.504Z,99716.94
2022-09-21T09:17:12.655Z,99724.81
2022-09-21T09:18:26.356Z,99713.00
2022-09-21T09:19:31.699Z,99716.39
2022-09-21T09:20:36.881Z,99717.20
2022-09-21T09:21:41.254Z,99718.01
2022-09-21T09:22:45.954Z,99715.89
2022-09-21T09:23:49.986Z,99715.92
2022-09-21T09:24:56.217Z,99717.45
2022-09-21T09:26:01.438Z,99720.17
2022-09-21T09:27:21.546Z,99710.35
2022-09-21T09:28:26.445Z,99723.76
2022-09-21T09:29:45.238Z,99717.59
2022-09-21T09:30:48.810Z,99719.06
2022-09-21T09:31:54.393Z,99718.11
2022-09-21T09:33:05.580Z,99714.13
2022-09-21T09:34:13.285Z,99728.89
2022-09-21T09:35:34.665Z,99713.91
2022-09-21T09:36:57.876Z,99710.06
2022-09-21T09:37:46.514Z,99718.99
2022-09-21T09:38:58.971Z,99715.20
2022-09-21T09:40:02.398Z,99722.31
2022-09-21T09:41:10.745Z,99715.23
2022-09-21T09:42:27.456Z,99718.25
2022-09-21T09:43:32.556Z,99723.39
2022-09-21T09:44:43.536Z,99723.52
2022-09-21T09:45:51.634Z,99716.71
2022-09-21T09:46:56.735Z,99722.64
2022-09-21T09:48:04.966Z,99729.15
2022-09-21T09:49:13.605Z,99727.73
2022-09-21T09:50:22.033Z,99730.10
2022-09-21T09:51:27.173Z,99738.42
2022-09-21T09:52:33.382Z,99734.58
2022-09-21T09:53:35.749Z,99735.73
2022-09-21T09:54:39.138Z,99734.16
2022-09-21T09:55:45.522Z,99731.25
2022-09-21T09:56:48.567Z,99731.43
2022-09-21T09:57:53.691Z,99742.37
2022-09-21T09:59:04.936Z,99739.42
2022-09-21T10:00:12.325Z,99738.53
2022-09-21T10:01:32.697Z,99738.41
2022-09-21T10:02:37.760Z,99736.94
2022-09-21T10:03:40.385Z,99739.58
2022-09-21T10:04:48.275Z,99735.50
2022-09-21T10:05:51.646Z,99732.49
2022-09-21T10:06:55.026Z,99732.38
2022-09-21T10:08:00.314Z,99731.05
2022-09-21T10:09:21.366Z,99726.67
2022-09-21T10:10:25.522Z,99733.25
2022-09-21T10:11:35.538Z,99734.52
2022-09-21T10:12:38.904Z,99725.28
2022-09-21T10:13:45.886Z,99723.38
2022-09-21T10:14:50.132Z,99724.64
2022-09-21T10:15:58.706Z,99722.81
2022-09-21T10:17:06.208Z,99729.85
2022-09-21T10:18:19.917Z,99719.28
2022-09-21T10:19:24.707Z,99722.83
2022-09-21T10:20:27.747Z,99725.48
2022-09-21T10:21:41.787Z,99732.03
2022-09-21T10:22:48.388Z,99728.45
2022-09-21T10:23:59.055Z,99732.20
2022-09-21T10:25:08.458Z,99736.75
2022-09-21T10:26:14.349Z,99738.29
2022-09-21T10:27:20.279Z,99731.50
2022-09-21T10:28:23.737Z,99728.73
2022-09-21T10:29:27.909Z,99735.08
2022-09-21T10:30:32.972Z,99732.81
2022-09-21T10:31:36.456Z,99732.67
2022-09-21T10:32:43.066Z,99730.98
2022-09-21T10:33:50.934Z,99741.08
2022-09-21T10:35:01.796Z,99722.48
2022-09-21T10:36:09.114Z,99736.34
2022-09-21T10:37:26.080Z,99733.30
2022-09-21T10:38:30.316Z,99734.77
2022-09-21T10:39:33.318Z,99730.97
2022-09-21T10:40:37.721Z,99739.88
2022-09-21T10:41:40.028Z,99737.11
2022-09-21T10:42:43.782Z,99739.02
2022-09-21T10:43:51.372Z,99735.98
2022-09-21T10:44:57.383Z,99744.66
2022-09-21T10:46:00.977Z,99736.08
2022-09-21T10:47:05.337Z,99746.42
2022-09-21T10:48:13.530Z,99737.50
2022-09-21T10:49:27.391Z,99738.03
2022-09-21T10:50:31.485Z,99745.81
2022-09-21T10:51:36.191Z,99745.89
2022-09-21T10:52:48.115Z,99747.80
2022-09-21T10:53:54.678Z,99743.20
2022-09-21T10:55:01.154Z,99748.12
2022-09-21T10:56:17.202Z,99743.89
2022-09-21T10:57:15.714Z,99748.87
2022-09-21T10:58:20.092Z,99751.15
2022-09-21T10:59:25.049Z,99740.44
2022-09-21T11:00:35.477Z,99746.34
2022-09-21T11:01:39.533Z,99748.12
2022-09-21T11:02:44.757Z,99743.52
2022-09-21T11:03:58.577Z,99748.18
2022-09-21T11:05:04.031Z,99751.84
2022-09-21T11:06:09.153Z,99744.74
2022-09-21T11:07:14.480Z,99758.53
2022-09-21T11:08:24.361Z,99754.87
2022-09-21T11:09:41.327Z,99747.20
2022-09-21T11:10:47.250Z,99751.05
2022-09-21T11:11:52.903Z,99745.70
2022-09-21T11:13:05.848Z,99752.42
2022-09-21T11:14:16.945Z,99747.11
2022-09-21T11:15:29.588Z,99756.64
2022-09-21T11:16:45.819Z,99753.73
2022-09-21T11:18:06.309Z,99760.66
2022-09-21T11:19:17.087Z,99756.69
2022-09-21T11:20:24.039Z,99748.34
2022-09-21T11:21:29.886Z,99760.02
2022-09-21T11:22:35.070Z,99752.00
2022-09-21T11:23:41.902Z,99746.02
2022-09-21T11:24:49.532Z,99752.89
2022-09-21T11:25:57.667Z,99752.42
2022-09-21T11:27:04.325Z,99749.30
2022-09-21T11:28:26.446Z,99755.56
2022-09-21T11:29:41.617Z,99762.20
2022-09-21T11:30:48.711Z,99757.26
2022-09-21T11:31:59.121Z,99750.52
2022-09-21T11:33:03.390Z,99765.11
2022-09-21T11:34:11.215Z,99760.08
2022-09-21T11:35:27.377Z,99750.83
2022-09-21T11:36:48.583Z,99755.88
2022-09-21T11:38:09.513Z,99756.32
2022-09-21T11:39:17.111Z,99752.31
2022-09-21T11:40:23.182Z,99753.22
2022-09-21T11:41:36.147Z,99748.77
2022-09-21T11:42:43.397Z,99748.05
2022-09-21T11:43:53.835Z,99754.67
2022-09-21T11:45:00.772Z,99764.06
2022-09-21T11:46:09.151Z,99756.40
2022-09-21T11:47:17.494Z,99753.55
2022-09-21T11:48:37.910Z,99760.45
2022-09-21T11:49:45.368Z,99768.89
2022-09-21T11:52:12.793Z,99760.66
2022-09-21T11:53:23.755Z,99765.31
2022-09-21T11:54:34.892Z,99770.93
2022-09-21T11:55:45.710Z,99771.72
2022-09-21T11:56:50.618Z,99766.98
2022-09-21T11:57:57.475Z,99765.37
2022-09-21T11:59:16.913Z,99770.23
2022-09-21T12:00:22.773Z,99772.37
2022-09-21T12:01:31.708Z,99774.33
2022-09-21T12:02:54.324Z,99766.50
2022-09-21T12:03:59.391Z,99769.41
2022-09-21T12:05:05.426Z,99766.76
2022-09-21T12:06:13.209Z,99760.80
2022-09-21T12:07:20.368Z,99764.23
2022-09-21T12:08:42.609Z,99770.11
2022-09-21T12:09:50.599Z,99773.97
2022-09-21T12:11:00.687Z,99764.48
2022-09-21T12:12:08.767Z,99770.03
2022-09-21T12:13:16.621Z,99766.91
2022-09-21T12:14:22.021Z,99765.59
2022-09-21T12:15:36.202Z,99769.94
2022-09-21T12:16:41.421Z,99770.23
2022-09-21T12:17:54.763Z,99759.39
2022-09-21T12:18:59.959Z,99763.49
2022-09-21T12:20:04.578Z,99769.97
2022-09-21T12:21:26.990Z,99768.49
2022-09-21T12:22:35.197Z,99770.65
2022-09-21T12:23:46.132Z,99770.73
2022-09-21T12:24:50.592Z,99770.88
2022-09-21T12:25:57.568Z,99768.55
2022-09-21T12:27:06.268Z,99769.59
2022-09-21T12:28:19.618Z,99767.54
2022-09-21T12:29:43.318Z,99765.01
2022-09-21T12:30:49.516Z,99771.64
2022-09-21T12:32:01.119Z,99771.20
2022-09-21T12:33:06.201Z,99764.31
2022-09-21T12:34:14.010Z,99770.69
2022-09-21T12:35:19.101Z,99767.88
2022-09-21T12:36:39.495Z,99763.06
2022-09-21T12:37:50.411Z,99759.19
2022-09-21T12:39:05.139Z,99771.98
2022-09-21T12:40:10.438Z,99766.97
2022-09-21T12:41:17.403Z,99766.14
2022-09-21T12:42:28.253Z,99763.70
2022-09-21T12:43:48.587Z,99768.46
2022-09-21T12:44:56.210Z,99755.41
2022-09-21T12:46:06.590Z,99759.00
2022-09-21T12:48:34.339Z,99762.80
2022-09-21T12:49:38.902Z,99767.91
2022-09-21T12:50:49.855Z,99763.42
2022-09-21T12:51:54.682Z,99761.89
2022-09-21T12:52:59.859Z,99763.72
2022-09-21T12:54:09.840Z,99758.66
2022-09-21T12:56:44.730Z,99761.70
2022-09-21T12:58:13.989Z,99756.89
2022-09-21T12:59:03.539Z,99765.92
2022-09-21T13:00:09.082Z,99764.13
2022-09-21T13:01:27.415Z,99761.67
2022-09-21T13:02:35.672Z,99759.75
2022-09-21T13:03:44.819Z,99763.31
2022-09-21T13:05:07.875Z,99762.14
2022-09-21T13:06:22.862Z,99755.78
2022-09-21T13:07:31.370Z,99759.52
2022-09-21T13:08:37.402Z,99762.99